Facundo Pérez

Скаут - Estudiantes
24 Июл 2027
Суббота
Продолжить

Характер

Адаптивность (17) Амбиции (20) Скандальность (2) Верность (9) Стрессоустойчивость (14) Профессионализм (10) Благородство (17) Темперамент (18)

Профиль

Стиль управления Демократичный
Лицензия Континентальная B
Решительность 11
Управление людьми 15
Мотивация 12
Дисциплина 8
Удовлетворённость
75%
Усталость
0%
Должность Скаут
Зарплата 85.3K в нед.
Контракт 14.03.2029

Производительность

Поведение Хорошее
Эффективность тренировок
40%
Развитие игроков
45%
Профилактика травм
65%
Тактическая реализация
50%

Недавние события

Участвовал в селекционном совещании только что
Участвовал в селекционном совещании 7 дн. назад
Участвовал в селекционном совещании 7 дн. назад
Участвовал в селекционном совещании 7 дн. назад
Участвовал в селекционном совещании 14 дн. назад
Участвовал в селекционном совещании 14 дн. назад
Участвовал в селекционном совещании 14 дн. назад
Участвовал в селекционном совещании 21 дн. назад

Текущее наблюдение

105
Игрок Клуб Статус Способность Уверенность Наблюдений Последнее наблюдение Последний голос
Patricio Tanda Racing Club Активный 105 / 100 51% 1 05.07.2027 -
Joel McGregor Swindon Town Активный 103 / 109 40% 1 21.06.2027 -
Riley Owen Wycombe Wanderers Переговоры 121 / 99 40% 1 21.06.2027 -
Matías Gómez Valencia Активный 132 / 118 40% 1 14.06.2027 -
Tiago Freitas Benfica Активный 110 / 102 40% 1 14.06.2027 -
Rodrigo Guth Talleres Активный 118 / 126 51% 1 01.06.2027 -
Solly March Brighton Активный 170 / 149 40% 3 31.05.2027 -
Rumarn Burrell Queens Park Rangers Активный 113 / 129 40% 2 29.05.2027 -
Ignacio Aliseda Cerro Porteno Активный 134 / 129 40% 1 29.05.2027 -
Matías Soulé AS Roma Активный 155 / 169 40% 3 27.05.2027 -
Ronald Swansea City Активный 142 / 138 40% 2 25.05.2027 -
Julio Enciso Ipswich Town Активный 154 / 138 40% 5 24.05.2027 Наблюдать
Chemsdine Talbi Sunderland Активный 135 / 156 40% 5 23.05.2027 Наблюдать
Yankuba Minteh Brighton Активный 161 / 169 40% 2 23.05.2027 -
Demarai Gray Birmingham Активный 141 / 144 40% 2 21.05.2027 -
Brennan Johnson Everton Активный 165 / 159 40% 6 19.05.2027 -
Juan Brunetta Torino Активный 155 / 149 40% 2 17.05.2027 -
Léo Scienza Southampton Активный 154 / 145 40% 1 16.05.2027 -
Ismaïla Sarr Crystal Palace Активный 155 / 140 40% 1 15.05.2027 -
Kevin Schade Brentford Активный 168 / 164 40% 7 14.05.2027 Наблюдать
Koki Saito Queens Park Rangers Активный 114 / 127 40% 4 14.05.2027 -
Zeidane Inoussa Swansea City Активный 121 / 124 40% 1 14.05.2027 -
John McGinn Aston Villa Активный 138 / 139 40% 2 11.05.2027 -
Mathias Jørgensen Blackburn Rovers Активный 135 / 103 40% 1 09.05.2027 -
Relebohile Mofokeng Orlando Pirates Активный 105 / 128 40% 2 06.05.2027 -
Mikkel Damsgaard Brentford Активный 149 / 158 40% 3 05.05.2027 -
Sorba Thomas Stoke City Активный 149 / 118 40% 1 05.05.2027 -
Assane Diao Como Активный 150 / 140 40% 6 04.05.2027 -
Charles De Ketelaere Atalanta Активный 141 / 165 40% 1 04.05.2027 -
Todd Cantwell Blackburn Rovers Активный 129 / 143 40% 1 03.05.2027 -
Kevin Fulham Активный 140 / 143 40% 5 29.04.2027 -
Dango Ouattara Brentford Активный 158 / 142 40% 3 28.04.2027 -
Pablo Solari Spartak Moscow Активный 115 / 138 40% 3 26.04.2027 -
Matt O'Riley Brighton Активный 163 / 142 40% 6 23.04.2027 -
Liam Delap Nottingham Forest Активный 158 / 141 40% 3 22.04.2027 -
Finn Azaz Southampton Активный 137 / 111 40% 1 17.04.2027 -
Ramón Terrats Getafe Активный 132 / 136 40% 5 11.04.2027 -
Jack McGlynn Stoke City Активный 115 / 134 40% 1 08.04.2027 -
Carlos Alcaraz Everton Активный 141 / 155 40% 2 05.04.2027 -
Nicolas Jackson Aston Villa Активный 161 / 156 40% 2 28.03.2027 -
Santiago Pierotti Lecce Активный 117 / 130 40% 2 28.03.2027 -
Kiernan Dewsbury-Hall Everton Активный 166 / 135 40% 2 22.03.2027 -
Carlos Vicente Udinese Активный 158 / 141 40% 1 21.03.2027 -
Esequiel Barco Spartak Moscow Активный 120 / 143 40% 2 17.03.2027 -
Petar Stanić Ludogorets Активный 118 / 143 40% 1 01.02.2027 -
Luca Langoni New England Revolution Активный 142 / 131 40% 2 21.12.2026 -
Hidemasa Morita Hull City Активный 147 / 152 40% 1 30.11.2026 -
Nicolás Domínguez Nottingham Forest Активный 146 / 155 40% 3 27.11.2026 -
Musab Al-Juwayr Al-Qadisiyah Активный 131 / 146 40% 1 27.11.2026 -
Kenny Tete Fulham Активный 157 / 129 40% 2 26.11.2026 -
Mathías Olivera Cesena Активный 148 / 143 40% 1 26.11.2026 -
Youssef En-Nesyri Al-Ittihad Активный 153 / 156 40% 5 23.11.2026 -
Jacob Greaves Ipswich Town Активный 150 / 150 40% 2 22.11.2026 -
Tommy Conway Middlesbrough Активный 140 / 133 40% 1 21.11.2026 -
Soungoutou Magassa West Ham United Активный 128 / 116 40% 2 18.11.2026 -
Yoane Wissa Newcastle United Активный 145 / 146 40% 1 17.11.2026 Нужно больше данных
Álvaro Carreras Real Madrid Активный 148 / 150 40% 1 14.11.2026 -
Aníbal Moreno River Plate Активный 124 / 125 40% 1 12.11.2026 -
Daniel Muñoz Nottingham Forest Активный 134 / 153 40% 1 12.11.2026 -
Sergej Milinković-Savić Al-Hilal Активный 164 / 152 40% 1 11.11.2026 -
Joachim Andersen Fulham Активный 156 / 133 40% 1 10.11.2026 -
Dwight McNeil Crystal Palace Активный 134 / 152 40% 2 07.11.2026 -
Ricardo Pepi Napoli Активный 162 / 147 40% 3 04.11.2026 Наблюдать
Tasos Douvikas Como Активный 135 / 143 40% 1 04.11.2026 -
Florentino Luís Ipswich Town Активный 136 / 134 40% 1 04.11.2026 -
Szabolcs Szoboszlai Haladas Активный 125 / 150 40% 1 04.11.2026 -
Tariq Lamptey Queens Park Rangers Активный 131 / 142 40% 1 03.11.2026 -
Marc Pubill Atlético Madrid Активный 151 / 152 40% 2 30.10.2026 -
Federico Girotti Alianza Lima Активный 119 / 123 40% 1 27.10.2026 -
Camilo Durán Bloemfontein Celtic Активный 125 / 131 40% 2 24.10.2026 -
Luca Martínez Dupuy Godoy Cruz Активный 107 / 128 40% 2 24.10.2026 -
Lucas Torreira Galatasaray Активный 169 / 165 40% 2 23.10.2026 -
Stephen Eustáquio Swansea City Активный 125 / 124 40% 1 23.10.2026 -
Mauro Arambarri River Plate Активный 162 / 149 40% 1 20.10.2026 -
Alan Velasco Boca Juniors Активный 137 / 140 40% 1 19.10.2026 -
Tomás Chancalay Minnesota United FC Активный 117 / 111 40% 2 16.10.2026 -
Leandro Godoy CSKA Sofia Активный 129 / 125 40% 1 16.10.2026 -
Taty Castellanos West Ham United Активный 138 / 148 40% 1 15.10.2026 -
Ayrton Costa Boca Juniors Активный 131 / 117 40% 2 14.10.2026 -
Tyrell Malacia Derby County Активный 118 / 138 40% 1 13.10.2026 -
Alejo Cruz Juventud Активный 125 / 123 40% 1 11.10.2026 -
Marcos Senesi Tottenham Активный 164 / 146 40% 1 11.10.2026 -
Nacho Vidal Lechia Активный 120 / 134 40% 1 11.10.2026 -
Eddie Nketiah Crystal Palace Активный 146 / 149 40% 2 10.10.2026 -
Emanuel Mammana Vélez Активный 130 / 120 40% 1 09.10.2026 -
Bruno Larregui Juventud Активный 117 / 125 40% 2 02.10.2026 -
Richarlison Tottenham Активный 159 / 140 40% 1 28.09.2026 -
Tadeo Allende Inter Miami CF Активный 121 / 120 40% 1 24.09.2026 -
Dejan Joveljić Seattle Sounders Активный 146 / 135 40% 1 24.09.2026 -
Duk Atlas Активный 124 / 120 40% 1 22.09.2026 -
Kerem Aktürkoğlu Fenerbahce Активный 157 / 146 40% 2 21.09.2026 -
Steven Bergwijn Al-Ittihad Активный 138 / 142 40% 4 18.09.2026 -
Yves Bissouma Tottenham Активный 122 / 134 40% 1 15.09.2026 -
Troy Parrott Betis Активный 141 / 153 40% 1 15.09.2026 -
Alexey Batrakov Galatasaray Активный 126 / 133 40% 3 12.09.2026 -
David Douděra FC Cincinnati Активный 140 / 123 40% 1 12.09.2026 -
Christian Krasnodar Активный 151 / 150 40% 1 09.09.2026 -
Alexander Díaz Deportivo Riestra Активный 130 / 112 40% 1 08.09.2026 -
Ollie Watkins Al-Hilal Активный 136 / 166 40% 3 01.09.2026 -
Leandro Trossard Besiktas Активный 153 / 158 40% 3 23.08.2026 -
Dodi Lukébakio Benfica Активный 146 / 162 40% 1 14.08.2026 -
Kasper Dolberg Ajax Активный 128 / 147 40% 1 13.08.2026 -
Erik Lira Cruz Azul Активный 136 / 149 40% 1 07.08.2026 -
Jesús Angulo Tigres Активный 118 / 120 40% 1 07.08.2026 -
Ivan Toney Al-Ahli Активный 143 / 140 40% 1 05.08.2026 -